Авиационная погода в Варне

СКИДКИ НА СМАРТФОНЫ!

Регион: 
Погода METAR: 
LBWN 091230Z 07016KT 030V100 9999 SCT045 35/04 Q1013 TEMPO 08018G28KT
Время наблюдения
2022-08-09T12:30:00Z
Температура C
35.0
Точка росы
4.0
Направление ветра
70
Скорость ветра (узлы)
16
Метео видимость
6.21
Облачность
SCT
Нижняя граница облачности (футы)
4500
Явления погоды
Условия полета
VFR
SCT – разбросанная отдельная облачность;

Скидки на навигаторы!